createdAt,value
2022-10-18T00:00:02.575Z,47.30
2022-10-18T00:02:29.192Z,47.00
2022-10-18T00:04:55.653Z,43.90
2022-10-18T00:07:22.193Z,47.70
2022-10-18T00:09:48.735Z,45.20
2022-10-18T00:12:15.277Z,47.30
2022-10-18T00:14:41.713Z,45.90
2022-10-18T00:17:08.449Z,46.40
2022-10-18T00:19:35.205Z,46.80
2022-10-18T00:22:01.631Z,45.80
2022-10-18T00:24:28.190Z,46.40
2022-10-18T00:26:54.737Z,44.00
2022-10-18T00:29:21.240Z,47.50
2022-10-18T00:31:47.810Z,48.50
2022-10-18T00:34:15.950Z,50.20
2022-10-18T00:36:43.933Z,42.30
2022-10-18T00:39:16.326Z,51.00
2022-10-18T00:41:43.398Z,50.90
2022-10-18T00:44:13.012Z,47.60
2022-10-18T00:46:45.288Z,48.40
2022-10-18T00:49:16.538Z,49.50
2022-10-18T00:51:47.991Z,40.60
2022-10-18T00:54:16.480Z,48.70
2022-10-18T00:56:44.159Z,44.20
2022-10-18T00:59:12.282Z,48.20
2022-10-18T01:01:38.735Z,49.00
2022-10-18T01:04:05.304Z,47.90
2022-10-18T01:06:33.588Z,43.80
2022-10-18T01:09:52.387Z,49.20
2022-10-18T01:12:37.164Z,46.20
2022-10-18T01:15:13.393Z,48.00
2022-10-18T01:17:48.988Z,47.40
2022-10-18T01:20:39.449Z,47.90
2022-10-18T01:23:28.205Z,47.50
2022-10-18T01:26:16.865Z,44.30
2022-10-18T01:28:55.621Z,48.00
2022-10-18T01:31:28.384Z,42.90
2022-10-18T01:34:05.220Z,50.80
2022-10-18T01:36:37.965Z,45.00
2022-10-18T01:39:09.164Z,42.40
2022-10-18T01:41:39.796Z,47.40
2022-10-18T01:44:09.545Z,49.40
2022-10-18T01:46:37.721Z,46.80
2022-10-18T01:49:05.185Z,46.90
2022-10-18T01:51:32.905Z,42.60
2022-10-18T01:54:00.753Z,44.60
2022-10-18T01:56:35.461Z,47.30
2022-10-18T01:59:33.062Z,49.20
2022-10-18T02:02:10.323Z,48.30
2022-10-18T02:04:46.800Z,45.50
2022-10-18T02:07:23.062Z,48.80
2022-10-18T02:10:02.036Z,42.40
2022-10-18T02:12:32.590Z,42.10
2022-10-18T02:15:02.255Z,44.90
2022-10-18T02:17:30.325Z,44.70
2022-10-18T02:19:57.273Z,45.30
2022-10-18T02:22:32.735Z,46.90
2022-10-18T02:25:04.892Z,44.60
2022-10-18T02:27:31.467Z,40.10
2022-10-18T02:29:58.707Z,45.00
2022-10-18T02:32:48.254Z,41.70
2022-10-18T02:35:25.878Z,43.30
2022-10-18T02:37:55.036Z,41.40
2022-10-18T02:40:21.508Z,41.60
2022-10-18T02:42:53.694Z,40.70
2022-10-18T02:45:20.443Z,43.80
2022-10-18T02:47:47.395Z,42.90
2022-10-18T02:50:14.343Z,38.50
2022-10-18T02:52:40.986Z,40.80
2022-10-18T02:55:08.639Z,39.90
2022-10-18T02:57:35.187Z,41.60
2022-10-18T03:00:02.175Z,42.00
2022-10-18T03:02:28.687Z,38.90
2022-10-18T03:04:55.138Z,38.50
2022-10-18T03:07:21.643Z,42.40
2022-10-18T03:09:48.221Z,45.30
2022-10-18T03:12:15.280Z,41.00
2022-10-18T03:14:41.897Z,44.10
2022-10-18T03:17:08.437Z,43.10
2022-10-18T03:19:34.977Z,44.20
2022-10-18T03:22:01.523Z,44.00
2022-10-18T03:24:27.956Z,49.40
2022-10-18T03:26:54.364Z,51.10
2022-10-18T03:29:20.831Z,44.00
2022-10-18T03:31:47.271Z,45.20
2022-10-18T03:34:13.792Z,42.60
2022-10-18T03:36:40.353Z,41.80
2022-10-18T03:39:06.892Z,43.20
2022-10-18T03:41:33.639Z,45.10
2022-10-18T03:44:00.175Z,42.20
2022-10-18T03:46:26.716Z,42.80
2022-10-18T03:48:53.268Z,43.30
2022-10-18T03:51:19.734Z,42.50
2022-10-18T03:53:46.157Z,43.00
2022-10-18T03:56:12.678Z,41.80
2022-10-18T03:58:39.221Z,43.50
2022-10-18T04:01:05.759Z,45.70
2022-10-18T04:03:32.168Z,46.20
2022-10-18T04:05:58.942Z,47.80
2022-10-18T04:08:25.480Z,45.20
2022-10-18T04:10:52.124Z,49.20
2022-10-18T04:13:18.769Z,49.70
2022-10-18T04:15:45.304Z,46.70
2022-10-18T04:18:11.768Z,49.90
2022-10-18T04:20:38.279Z,47.90
2022-10-18T04:23:04.713Z,48.50
2022-10-18T04:25:31.330Z,47.40
2022-10-18T04:27:58.108Z,48.00
2022-10-18T04:30:24.621Z,49.80
2022-10-18T04:32:51.183Z,51.80
2022-10-18T04:35:17.922Z,47.00
2022-10-18T04:37:44.360Z,52.00
2022-10-18T04:40:11.555Z,55.10
2022-10-18T04:42:38.055Z,59.90
2022-10-18T04:45:05.213Z,87.60
2022-10-18T04:47:32.140Z,106.50
2022-10-18T04:49:58.869Z,129.10
2022-10-18T04:52:25.555Z,109.80
2022-10-18T04:54:52.082Z,91.60
2022-10-18T04:57:18.621Z,101.00
2022-10-18T04:59:45.057Z,111.00
2022-10-18T05:02:11.697Z,100.50
2022-10-18T05:04:38.295Z,64.60
2022-10-18T05:07:04.750Z,59.20
2022-10-18T05:09:31.308Z,52.40
2022-10-18T05:11:57.847Z,60.70
2022-10-18T05:14:24.384Z,58.90
2022-10-18T05:16:50.953Z,52.40
2022-10-18T05:19:17.409Z,54.30
2022-10-18T05:21:43.906Z,59.20
2022-10-18T05:24:12.275Z,58.50
2022-10-18T05:26:38.934Z,62.00
2022-10-18T05:29:05.799Z,60.40
2022-10-18T05:31:32.321Z,54.30
2022-10-18T05:33:58.791Z,53.10
2022-10-18T05:36:25.219Z,56.30
2022-10-18T05:38:51.734Z,52.30
2022-10-18T05:41:18.271Z,47.80
2022-10-18T05:43:44.809Z,46.60
2022-10-18T05:46:15.056Z,53.00
2022-10-18T05:48:44.148Z,50.60
2022-10-18T05:51:10.784Z,44.00
2022-10-18T05:53:38.005Z,42.10
2022-10-18T05:56:06.171Z,43.60
2022-10-18T05:58:33.374Z,42.30
2022-10-18T06:01:01.479Z,40.20
2022-10-18T06:03:28.201Z,36.40
2022-10-18T06:06:03.343Z,38.00
2022-10-18T06:08:30.341Z,36.10
2022-10-18T06:10:57.335Z,30.90
2022-10-18T06:13:24.085Z,32.50
2022-10-18T06:15:50.920Z,30.70
2022-10-18T06:18:17.364Z,27.40
2022-10-18T06:20:43.833Z,32.00
2022-10-18T06:23:10.340Z,28.70
2022-10-18T06:25:36.884Z,25.70
2022-10-18T06:28:07.754Z,26.40
2022-10-18T06:30:36.688Z,25.60
2022-10-18T06:33:03.155Z,26.70
2022-10-18T06:35:29.692Z,37.20
2022-10-18T06:37:56.166Z,27.10
2022-10-18T06:40:22.573Z,23.80
2022-10-18T06:42:59.945Z,26.10
2022-10-18T06:45:33.904Z,27.60
2022-10-18T06:48:00.322Z,21.20
2022-10-18T06:50:26.848Z,22.80
2022-10-18T06:52:53.353Z,21.60
2022-10-18T06:55:19.826Z,22.50
2022-10-18T06:57:46.682Z,22.40
2022-10-18T07:00:13.827Z,21.50
2022-10-18T07:02:40.307Z,22.20
2022-10-18T07:05:10.396Z,21.30
2022-10-18T07:07:37.302Z,25.20
2022-10-18T07:10:04.787Z,22.20
2022-10-18T07:12:32.567Z,25.90
2022-10-18T07:14:59.209Z,18.00
2022-10-18T07:17:26.772Z,17.80
2022-10-18T07:19:53.308Z,17.90
2022-10-18T07:22:19.753Z,19.90
2022-10-18T07:24:46.171Z,19.20
2022-10-18T07:27:12.970Z,18.30
2022-10-18T07:29:39.476Z,20.90
2022-10-18T07:32:06.017Z,17.10
2022-10-18T07:34:32.660Z,17.30
2022-10-18T07:36:59.207Z,25.10
2022-10-18T07:39:25.741Z,21.60
2022-10-18T07:41:52.210Z,20.40
2022-10-18T07:44:18.798Z,18.80
2022-10-18T07:46:45.364Z,23.10
2022-10-18T07:49:11.768Z,23.70
2022-10-18T07:51:38.268Z,21.70
2022-10-18T07:54:04.779Z,22.10
2022-10-18T07:56:31.182Z,20.70
2022-10-18T07:58:57.657Z,19.50
2022-10-18T08:01:25.197Z,18.00
2022-10-18T08:03:52.789Z,18.00
2022-10-18T08:06:21.011Z,18.50
2022-10-18T08:08:47.615Z,17.70
2022-10-18T08:11:20.039Z,17.60
2022-10-18T08:13:46.958Z,18.70
2022-10-18T08:16:19.923Z,23.00
2022-10-18T08:18:46.800Z,16.20
2022-10-18T08:21:14.867Z,14.70
2022-10-18T08:23:42.000Z,15.80
2022-10-18T08:26:11.356Z,14.10
2022-10-18T08:28:38.177Z,20.30
2022-10-18T08:31:11.198Z,13.80
2022-10-18T08:33:38.166Z,15.10
2022-10-18T08:36:07.914Z,18.50
2022-10-18T08:38:36.086Z,17.10
2022-10-18T08:41:16.960Z,14.50
2022-10-18T08:43:56.504Z,17.60
2022-10-18T08:46:23.060Z,14.80
2022-10-18T08:48:54.196Z,18.50
2022-10-18T08:51:45.238Z,17.00
2022-10-18T08:54:24.226Z,15.00
2022-10-18T08:57:01.550Z,14.70
2022-10-18T08:59:42.006Z,12.50
2022-10-18T09:02:27.266Z,19.00
2022-10-18T09:05:25.226Z,16.20
2022-10-18T09:08:01.247Z,14.70
2022-10-18T09:10:41.735Z,18.70
2022-10-18T09:13:27.359Z,14.50
2022-10-18T09:16:01.373Z,16.10
2022-10-18T09:18:51.982Z,12.60
2022-10-18T09:24:05.690Z,10.40
2022-10-18T09:26:42.124Z,10.50
2022-10-18T09:29:30.401Z,12.20
2022-10-18T09:32:22.296Z,13.40
2022-10-18T09:35:04.482Z,14.80
2022-10-18T09:37:34.332Z,13.40
2022-10-18T09:40:18.046Z,13.60
2022-10-18T09:42:55.534Z,12.50
2022-10-18T09:45:32.574Z,15.80
2022-10-18T09:48:21.727Z,11.60
2022-10-18T09:50:58.102Z,14.00
2022-10-18T09:53:30.361Z,8.70
2022-10-18T09:56:09.301Z,10.50
2022-10-18T09:58:41.907Z,11.30
2022-10-18T10:01:09.654Z,8.00
2022-10-18T10:03:36.420Z,8.10
2022-10-18T10:06:16.769Z,7.00
2022-10-18T10:08:47.653Z,8.70
2022-10-18T10:11:37.535Z,9.50
2022-10-18T10:14:10.171Z,12.80
2022-10-18T10:16:47.060Z,9.00
2022-10-18T10:19:35.267Z,9.50
2022-10-18T10:22:06.416Z,10.20
2022-10-18T10:24:37.192Z,9.30
2022-10-18T10:27:06.967Z,9.80
2022-10-18T10:29:45.810Z,7.50
2022-10-18T10:32:13.841Z,9.30
2022-10-18T10:34:42.431Z,11.10
2022-10-18T10:37:23.784Z,9.60
2022-10-18T10:40:18.731Z,12.00
2022-10-18T10:43:08.728Z,15.20
2022-10-18T10:46:19.282Z,11.60
2022-10-18T10:48:48.969Z,11.80
2022-10-18T10:51:30.478Z,12.70
2022-10-18T10:54:05.908Z,13.70
2022-10-18T10:56:56.535Z,10.90
2022-10-18T11:02:17.815Z,8.70
2022-10-18T11:04:46.112Z,11.80
2022-10-18T11:07:40.766Z,15.30
2022-10-18T11:10:10.449Z,7.90
2022-10-18T11:12:49.476Z,10.60
2022-10-18T11:15:33.015Z,8.20
2022-10-18T11:17:59.433Z,6.90
2022-10-18T11:20:36.953Z,11.50
2022-10-18T11:23:08.161Z,9.60
2022-10-18T11:25:56.550Z,7.00
2022-10-18T11:28:36.954Z,7.70
2022-10-18T11:31:24.512Z,6.60
2022-10-18T11:34:21.857Z,8.70
2022-10-18T11:40:21.145Z,7.80
2022-10-18T11:43:08.985Z,8.20
2022-10-18T11:45:41.876Z,6.90
2022-10-18T11:48:36.060Z,8.70
2022-10-18T11:51:40.102Z,7.50
2022-10-18T11:54:52.185Z,9.00
2022-10-18T11:57:43.107Z,6.00
2022-10-18T12:00:18.684Z,7.00
2022-10-18T12:03:03.909Z,6.80
2022-10-18T12:05:32.931Z,5.50
2022-10-18T12:08:03.456Z,6.40
2022-10-18T12:13:29.417Z,5.60
2022-10-18T12:15:56.371Z,4.50
2022-10-18T12:18:24.913Z,6.50
2022-10-18T12:20:54.778Z,6.20
2022-10-18T12:23:30.240Z,7.00
2022-10-18T12:26:02.442Z,7.50
2022-10-18T12:28:54.689Z,7.10
2022-10-18T12:31:26.634Z,7.20
2022-10-18T12:33:58.684Z,5.80
2022-10-18T12:36:47.984Z,8.80
2022-10-18T12:39:38.952Z,5.60
2022-10-18T12:42:23.053Z,4.80
2022-10-18T12:44:59.979Z,6.70
2022-10-18T12:47:29.127Z,6.80
2022-10-18T12:50:02.773Z,7.60
2022-10-18T12:52:31.256Z,6.20
2022-10-18T12:55:20.799Z,5.30
2022-10-18T12:57:53.472Z,5.40
2022-10-18T13:00:32.315Z,6.80
2022-10-18T13:03:14.304Z,6.10
2022-10-18T13:05:54.548Z,6.70
2022-10-18T13:08:28.490Z,5.60
2022-10-18T13:11:10.098Z,5.40
2022-10-18T13:14:07.023Z,6.60
2022-10-18T13:17:03.326Z,5.10
2022-10-18T13:20:02.831Z,5.10
2022-10-18T13:22:48.772Z,7.50
2022-10-18T13:25:18.268Z,7.90
2022-10-18T13:27:53.837Z,7.70
2022-10-18T13:30:50.478Z,8.30
2022-10-18T13:33:37.598Z,7.40
2022-10-18T13:36:06.818Z,8.10
2022-10-18T13:38:39.383Z,8.20
2022-10-18T13:41:21.015Z,8.20
2022-10-18T13:43:53.371Z,9.80
2022-10-18T13:46:21.851Z,6.30
2022-10-18T13:49:21.766Z,8.60
2022-10-18T13:52:14.214Z,11.00
2022-10-18T13:54:59.483Z,6.20
2022-10-18T13:57:48.976Z,9.40
2022-10-18T14:00:24.731Z,9.60
2022-10-18T14:03:31.709Z,7.60
2022-10-18T14:06:04.698Z,7.80
2022-10-18T14:08:41.603Z,7.80
2022-10-18T14:11:26.676Z,7.80
2022-10-18T14:14:04.115Z,5.10
2022-10-18T14:16:54.888Z,9.60
2022-10-18T14:19:44.773Z,9.50
2022-10-18T14:22:21.059Z,15.00
2022-10-18T14:24:52.753Z,10.50
2022-10-18T14:27:25.092Z,9.20
2022-10-18T14:30:09.331Z,7.60
2022-10-18T14:32:36.690Z,9.60
2022-10-18T14:35:33.450Z,8.50
2022-10-18T14:37:52.976Z,7.60
2022-10-18T14:40:37.176Z,7.40
2022-10-18T14:43:09.801Z,10.30
2022-10-18T14:45:36.305Z,9.70
2022-10-18T14:48:20.553Z,10.40
2022-10-18T14:50:54.171Z,8.40
2022-10-18T14:53:20.843Z,10.50
2022-10-18T14:55:56.551Z,10.10
2022-10-18T14:58:23.812Z,15.70
2022-10-18T15:00:50.476Z,8.60
2022-10-18T15:03:18.132Z,10.00
2022-10-18T15:06:00.092Z,11.00
2022-10-18T15:08:34.370Z,15.40
2022-10-18T15:11:01.510Z,13.10
2022-10-18T15:13:28.461Z,17.60
2022-10-18T15:15:56.233Z,16.10
2022-10-18T15:18:27.899Z,17.10
2022-10-18T15:21:20.050Z,18.20
2022-10-18T15:23:46.675Z,12.70
2022-10-18T15:26:19.868Z,13.80
2022-10-18T15:28:50.550Z,18.00
2022-10-18T15:34:26.487Z,10.20
2022-10-18T15:36:55.699Z,13.10
2022-10-18T15:39:25.438Z,12.30
2022-10-18T15:41:57.928Z,16.20
2022-10-18T15:44:28.939Z,13.30
2022-10-18T15:47:09.919Z,16.20
2022-10-18T15:49:45.468Z,42.20
2022-10-18T15:52:38.282Z,37.20
2022-10-18T15:55:31.271Z,31.30
2022-10-18T15:58:16.054Z,39.90
2022-10-18T16:00:43.925Z,30.80
2022-10-18T16:03:10.976Z,37.80
2022-10-18T16:05:38.852Z,42.00
2022-10-18T16:08:05.693Z,32.50
2022-10-18T16:10:32.219Z,39.20
2022-10-18T16:12:58.775Z,38.20
2022-10-18T16:15:25.309Z,37.40
2022-10-18T16:17:52.278Z,36.50
2022-10-18T16:20:22.199Z,29.90
2022-10-18T16:22:48.817Z,36.90
2022-10-18T16:25:15.868Z,27.80
2022-10-18T16:27:42.611Z,32.30
2022-10-18T16:30:20.113Z,33.70
2022-10-18T16:32:46.749Z,29.10
2022-10-18T16:35:13.366Z,25.70
2022-10-18T16:37:40.349Z,27.30
2022-10-18T16:40:23.394Z,27.90
2022-10-18T16:42:50.231Z,34.00
2022-10-18T16:45:17.179Z,58.90
2022-10-18T16:47:44.230Z,50.90
2022-10-18T16:50:20.089Z,53.70
2022-10-18T16:52:46.832Z,50.90
2022-10-18T16:55:13.475Z,42.00
2022-10-18T16:57:40.120Z,39.70
2022-10-18T17:00:07.589Z,48.80
2022-10-18T17:02:34.629Z,54.50
2022-10-18T17:05:01.482Z,41.70
2022-10-18T17:07:28.225Z,60.20
2022-10-18T17:09:54.834Z,58.80
2022-10-18T17:12:21.303Z,58.80
2022-10-18T17:14:48.050Z,64.70
2022-10-18T17:17:14.693Z,64.70
2022-10-18T17:19:41.463Z,77.00
2022-10-18T17:22:08.179Z,116.10
2022-10-18T17:24:34.717Z,86.00
2022-10-18T17:27:01.543Z,83.80
2022-10-18T17:29:28.110Z,63.10
2022-10-18T17:31:54.743Z,57.10
2022-10-18T17:34:21.604Z,61.00
2022-10-18T17:36:48.337Z,52.30
2022-10-18T17:39:14.873Z,49.30
2022-10-18T17:41:41.413Z,72.40
2022-10-18T17:44:08.101Z,68.40
2022-10-18T17:46:34.702Z,74.30
2022-10-18T17:49:01.342Z,70.50
2022-10-18T17:51:28.090Z,92.50
2022-10-18T17:53:54.836Z,76.70
2022-10-18T17:56:21.475Z,75.20
2022-10-18T17:58:51.704Z,72.20
2022-10-18T18:01:22.431Z,69.20
2022-10-18T18:03:49.493Z,81.00
2022-10-18T18:06:27.139Z,63.60
2022-10-18T18:08:53.637Z,75.50
2022-10-18T18:11:20.172Z,78.90
2022-10-18T18:13:46.668Z,86.00
2022-10-18T18:16:17.047Z,82.40
2022-10-18T18:18:44.206Z,87.40
2022-10-18T18:21:11.671Z,66.20
2022-10-18T18:23:38.511Z,73.00
2022-10-18T18:26:05.977Z,80.20
2022-10-18T18:28:32.547Z,71.50
2022-10-18T18:30:59.256Z,75.90
2022-10-18T18:33:26.003Z,74.80
2022-10-18T18:35:57.046Z,83.40
2022-10-18T18:38:24.100Z,67.40
2022-10-18T18:40:50.743Z,72.20
2022-10-18T18:43:24.564Z,74.00
2022-10-18T18:45:51.702Z,75.40
2022-10-18T18:48:19.870Z,65.60
2022-10-18T18:50:47.135Z,63.10
2022-10-18T18:53:13.678Z,52.00
2022-10-18T18:55:40.221Z,56.30
2022-10-18T18:58:06.758Z,51.00
2022-10-18T19:00:33.399Z,56.10
2022-10-18T19:03:00.144Z,60.50
2022-10-18T19:05:26.790Z,69.10
2022-10-18T19:07:53.428Z,75.40
2022-10-18T19:10:20.170Z,88.10
2022-10-18T19:12:46.814Z,89.30
2022-10-18T19:15:13.456Z,84.50
2022-10-18T19:17:40.172Z,82.30
2022-10-18T19:20:07.147Z,80.20
2022-10-18T19:22:33.689Z,74.00
2022-10-18T19:25:00.134Z,79.60
2022-10-18T19:27:26.576Z,80.70
2022-10-18T19:29:53.012Z,76.90
2022-10-18T19:32:19.604Z,67.40
2022-10-18T19:34:46.286Z,72.50
2022-10-18T19:37:13.873Z,64.70
2022-10-18T19:39:40.492Z,68.60
2022-10-18T19:42:11.128Z,60.00
2022-10-18T19:44:37.710Z,54.50
2022-10-18T19:47:10.791Z,79.70
2022-10-18T19:49:38.832Z,70.30
2022-10-18T19:52:05.320Z,68.80
2022-10-18T19:54:31.918Z,72.60
2022-10-18T19:56:58.354Z,63.60
2022-10-18T19:59:25.007Z,72.60
2022-10-18T20:01:51.542Z,65.20
2022-10-18T20:04:18.082Z,61.50
2022-10-18T20:06:44.629Z,59.30
2022-10-18T20:09:16.068Z,63.70
2022-10-18T20:11:46.016Z,60.40
2022-10-18T20:14:12.538Z,58.10
2022-10-18T20:16:39.080Z,57.00
2022-10-18T20:19:07.476Z,56.30
2022-10-18T20:21:34.774Z,59.60
2022-10-18T20:24:02.594Z,66.60
2022-10-18T20:26:29.099Z,60.30
2022-10-18T20:28:57.075Z,62.00
2022-10-18T20:31:29.621Z,62.50
2022-10-18T20:34:04.224Z,63.30
2022-10-18T20:36:31.795Z,61.40
2022-10-18T20:38:58.952Z,55.90
2022-10-18T20:41:33.201Z,57.60
2022-10-18T20:44:01.931Z,55.30
2022-10-18T20:46:34.376Z,58.00
2022-10-18T20:49:01.504Z,59.10
2022-10-18T20:51:28.340Z,54.60
2022-10-18T20:53:55.117Z,50.40
2022-10-18T20:56:24.698Z,51.00
2022-10-18T20:58:54.290Z,47.70
2022-10-18T21:01:33.051Z,53.90
2022-10-18T21:04:05.339Z,49.90
2022-10-18T21:06:35.130Z,49.80
2022-10-18T21:09:06.714Z,51.80
2022-10-18T21:11:39.864Z,55.80
2022-10-18T21:14:07.598Z,50.00
2022-10-18T21:16:36.003Z,49.50
2022-10-18T21:19:14.713Z,45.90
2022-10-18T21:21:46.132Z,45.10
2022-10-18T21:24:15.168Z,42.90
2022-10-18T21:26:42.164Z,46.80
2022-10-18T21:29:11.303Z,47.90
2022-10-18T21:31:40.056Z,46.60
2022-10-18T21:34:10.087Z,52.20
2022-10-18T21:36:37.230Z,45.10
2022-10-18T21:39:06.124Z,50.90
2022-10-18T21:41:33.546Z,53.70
2022-10-18T21:44:00.533Z,52.60
2022-10-18T21:46:27.005Z,51.40
2022-10-18T21:48:55.553Z,43.10
2022-10-18T21:51:24.811Z,43.30
2022-10-18T21:53:54.161Z,46.90
2022-10-18T21:56:23.787Z,42.00
2022-10-18T21:58:52.365Z,40.90
2022-10-18T22:01:22.014Z,41.50
2022-10-18T22:03:51.683Z,42.60
2022-10-18T22:06:19.375Z,42.00
2022-10-18T22:08:51.791Z,46.00
2022-10-18T22:11:22.169Z,37.10
2022-10-18T22:13:48.906Z,32.90
2022-10-18T22:16:17.082Z,35.00
2022-10-18T22:18:45.569Z,29.20
2022-10-18T22:21:14.735Z,28.90
2022-10-18T22:23:46.561Z,26.10
2022-10-18T22:26:21.469Z,20.90
2022-10-18T22:28:53.804Z,17.20
2022-10-18T22:31:23.190Z,15.40
2022-10-18T22:33:55.013Z,12.10
2022-10-18T22:36:22.273Z,11.30
2022-10-18T22:38:49.013Z,11.20
2022-10-18T22:41:15.654Z,9.10
2022-10-18T22:43:42.599Z,8.00
2022-10-18T22:46:13.448Z,7.20
2022-10-18T22:48:40.552Z,7.40
2022-10-18T22:51:07.955Z,8.80
2022-10-18T22:53:36.232Z,7.50
2022-10-18T22:56:04.016Z,8.10
2022-10-18T22:58:30.848Z,9.20
2022-10-18T23:01:06.495Z,9.20
2022-10-18T23:03:33.747Z,7.40
2022-10-18T23:06:00.302Z,7.70
2022-10-18T23:08:27.102Z,6.80
2022-10-18T23:10:56.160Z,8.70
2022-10-18T23:13:24.685Z,8.50
2022-10-18T23:15:51.585Z,9.30
2022-10-18T23:18:18.638Z,9.70
2022-10-18T23:20:45.793Z,7.50
2022-10-18T23:23:13.500Z,7.00
2022-10-18T23:25:40.200Z,6.80
2022-10-18T23:28:07.153Z,9.60
2022-10-18T23:30:33.874Z,6.30
2022-10-18T23:33:00.706Z,7.20
2022-10-18T23:35:27.125Z,10.00
2022-10-18T23:37:53.622Z,8.30
2022-10-18T23:40:20.025Z,9.20
2022-10-18T23:42:46.609Z,7.10
2022-10-18T23:45:13.133Z,8.10
2022-10-18T23:47:39.568Z,6.30
2022-10-18T23:50:06.518Z,5.90
2022-10-18T23:52:33.158Z,4.60
2022-10-18T23:54:59.591Z,5.00
2022-10-18T23:57:29.724Z,5.90
2022-10-18T23:59:58.000Z,5.40
